createdAt,value
2022-08-27T00:02:07.524Z,100900.44
2022-08-27T00:04:36.829Z,100896.31
2022-08-27T00:07:05.894Z,100899.69
2022-08-27T00:12:19.135Z,100898.16
2022-08-27T00:14:46.978Z,100901.03
2022-08-27T00:17:16.149Z,100901.63
2022-08-27T00:19:44.684Z,100892.94
2022-08-27T00:22:12.893Z,100899.81
2022-08-27T00:24:48.712Z,100902.59
2022-08-27T00:27:18.171Z,100903.53
2022-08-27T00:29:47.442Z,100896.25
2022-08-27T00:32:16.537Z,100897.38
2022-08-27T00:34:44.784Z,100904.09
2022-08-27T00:37:12.757Z,100910.03
2022-08-27T00:39:40.618Z,100907.87
2022-08-27T00:42:10.088Z,100905.94
2022-08-27T00:44:46.491Z,100907.81
2022-08-27T00:47:20.328Z,100905.28
2022-08-27T00:49:56.252Z,100905.47
2022-08-27T00:52:40.913Z,100915.00
2022-08-27T00:55:22.780Z,100911.66
2022-08-27T00:58:03.314Z,100914.69
2022-08-27T01:00:34.213Z,100915.00
2022-08-27T01:03:02.553Z,100911.72
2022-08-27T01:05:30.787Z,100915.31
2022-08-27T01:08:06.066Z,100914.41
2022-08-27T01:10:34.983Z,100920.78
2022-08-27T01:13:03.091Z,100906.47
2022-08-27T01:15:31.644Z,100916.34
2022-08-27T01:18:01.288Z,100920.97
2022-08-27T01:20:36.059Z,100920.00
2022-08-27T01:23:25.622Z,100922.47
2022-08-27T01:25:53.756Z,100915.81
2022-08-27T01:28:23.640Z,100924.87
2022-08-27T01:30:57.167Z,100926.91
2022-08-27T01:33:25.280Z,100930.53
2022-08-27T01:35:53.361Z,100916.91
2022-08-27T01:38:30.937Z,100926.56
2022-08-27T01:41:01.480Z,100918.66
2022-08-27T01:43:31.613Z,100929.38
2022-08-27T01:45:59.803Z,100921.34
2022-08-27T01:48:30.583Z,100931.84
2022-08-27T01:50:58.398Z,100925.88
2022-08-27T01:53:27.723Z,100931.97
2022-08-27T01:55:55.676Z,100931.63
2022-08-27T01:58:27.273Z,100929.53
2022-08-27T02:00:59.825Z,100936.75
2022-08-27T02:03:28.038Z,100943.03
2022-08-27T02:05:56.076Z,100936.59
2022-08-27T02:08:24.250Z,100939.47
2022-08-27T02:10:52.569Z,100943.25
2022-08-27T02:13:20.430Z,100943.50
2022-08-27T02:15:48.250Z,100940.62
2022-08-27T02:18:16.823Z,100946.03
2022-08-27T02:20:48.896Z,100942.59
2022-08-27T02:23:18.493Z,100946.94
2022-08-27T02:25:49.030Z,100943.13
2022-08-27T02:28:17.234Z,100931.28
2022-08-27T02:30:45.175Z,100940.28
2022-08-27T02:33:13.895Z,100947.56
2022-08-27T02:35:44.573Z,100935.37
2022-08-27T02:38:14.456Z,100940.06
2022-08-27T02:40:42.649Z,100938.25
2022-08-27T02:43:15.822Z,100938.91
2022-08-27T02:45:44.318Z,100940.62
2022-08-27T02:48:12.688Z,100946.13
2022-08-27T02:50:40.685Z,100937.16
2022-08-27T02:53:09.210Z,100943.03
2022-08-27T02:55:37.634Z,100950.47
2022-08-27T02:58:05.644Z,100954.16
2022-08-27T03:00:34.078Z,100953.22
2022-08-27T03:03:03.089Z,100949.44
2022-08-27T03:05:31.041Z,100941.50
2022-08-27T03:08:00.284Z,100955.97
2022-08-27T03:10:28.060Z,100952.56
2022-08-27T03:12:57.563Z,100954.19
2022-08-27T03:15:26.052Z,100962.72
2022-08-27T03:18:12.379Z,100965.28
2022-08-27T03:20:42.684Z,100964.38
2022-08-27T03:23:11.545Z,100963.44
2022-08-27T03:25:39.489Z,100961.38
2022-08-27T03:28:22.400Z,100962.28
2022-08-27T03:30:54.769Z,100970.75
2022-08-27T03:33:23.218Z,100969.25
2022-08-27T03:35:52.163Z,100962.37
2022-08-27T03:38:20.719Z,100970.66
2022-08-27T03:40:49.744Z,100973.59
2022-08-27T03:43:19.388Z,100978.81
2022-08-27T03:46:00.561Z,100981.16
2022-08-27T03:48:32.226Z,100987.22
2022-08-27T03:51:05.573Z,100987.00
2022-08-27T03:53:33.744Z,100982.34
2022-08-27T03:56:01.564Z,100977.56
2022-08-27T03:58:29.457Z,100982.63
2022-08-27T04:00:57.718Z,100983.38
2022-08-27T04:03:25.922Z,100975.50
2022-08-27T04:05:57.275Z,100981.06
2022-08-27T04:08:26.547Z,100985.38
2022-08-27T04:10:55.296Z,100989.81
2022-08-27T04:13:24.117Z,100974.22
2022-08-27T04:15:54.759Z,100987.06
2022-08-27T04:18:22.916Z,100981.81
2022-08-27T04:20:52.891Z,100986.56
2022-08-27T04:23:21.819Z,100977.66
2022-08-27T04:25:49.665Z,100988.72
2022-08-27T04:28:18.877Z,100982.50
2022-08-27T04:30:47.741Z,100978.12
2022-08-27T04:36:04.662Z,100968.19
2022-08-27T04:38:33.757Z,100968.66
2022-08-27T04:41:22.758Z,100969.69
2022-08-27T04:43:56.750Z,100975.78
2022-08-27T04:46:29.061Z,100973.53
2022-08-27T04:48:59.694Z,100973.66
2022-08-27T04:51:29.408Z,100972.69
2022-08-27T04:54:01.018Z,100975.87
2022-08-27T04:56:35.064Z,100976.69
2022-08-27T04:59:05.687Z,100971.69
2022-08-27T05:01:33.981Z,100967.62
2022-08-27T05:04:15.081Z,100966.50
2022-08-27T05:06:45.783Z,100965.72
2022-08-27T05:09:14.834Z,100969.72
2022-08-27T05:11:44.207Z,100962.53
2022-08-27T05:14:16.569Z,100970.16
2022-08-27T05:16:44.903Z,100972.94
2022-08-27T05:19:15.693Z,100960.72
2022-08-27T05:21:51.267Z,100960.97
2022-08-27T05:24:20.058Z,100956.19
2022-08-27T05:26:48.594Z,100954.78
2022-08-27T05:29:17.297Z,100953.50
2022-08-27T05:31:48.262Z,100957.62
2022-08-27T05:34:18.690Z,100952.22
2022-08-27T05:36:53.858Z,100951.78
2022-08-27T05:39:21.874Z,100953.78
2022-08-27T05:41:49.816Z,100946.31
2022-08-27T05:44:40.148Z,100952.53
2022-08-27T05:47:06.296Z,100946.84
2022-08-27T05:49:34.543Z,100943.62
2022-08-27T05:52:02.587Z,100948.28
2022-08-27T05:54:30.411Z,100941.69
2022-08-27T05:56:58.788Z,100932.16
2022-08-27T05:59:45.017Z,100934.19
2022-08-27T06:02:13.380Z,100932.50
2022-08-27T06:04:41.775Z,100926.13
2022-08-27T06:07:11.336Z,100929.16
2022-08-27T06:09:40.041Z,100923.12
2022-08-27T06:12:10.713Z,100923.69
2022-08-27T06:14:39.090Z,100929.25
2022-08-27T06:17:07.067Z,100927.28
2022-08-27T06:19:36.731Z,100922.34
2022-08-27T06:22:09.795Z,100924.94
2022-08-27T06:24:42.805Z,100929.88
2022-08-27T06:27:14.597Z,100926.94
2022-08-27T06:29:43.350Z,100917.59
2022-08-27T06:32:12.421Z,100917.97
2022-08-27T06:34:40.425Z,100926.00
2022-08-27T06:37:08.880Z,100923.12
2022-08-27T06:39:40.553Z,100925.56
2022-08-27T06:42:12.790Z,100917.25
2022-08-27T06:44:41.586Z,100919.97
2022-08-27T06:47:10.308Z,100914.44
2022-08-27T06:49:41.015Z,100902.22
2022-08-27T06:52:09.477Z,100914.06
2022-08-27T06:54:37.331Z,100905.44
2022-08-27T06:57:05.319Z,100896.38
2022-08-27T06:59:33.760Z,100899.62
2022-08-27T07:02:01.949Z,100896.50
2022-08-27T07:04:32.802Z,100891.44
2022-08-27T07:07:02.766Z,100900.78
2022-08-27T07:09:32.852Z,100897.53
2022-08-27T07:12:01.809Z,100900.28
2022-08-27T07:14:35.477Z,100890.63
2022-08-27T07:17:10.728Z,100894.25
2022-08-27T07:19:41.132Z,100892.56
2022-08-27T07:22:09.761Z,100896.56
2022-08-27T07:24:38.471Z,100884.28
2022-08-27T07:27:07.031Z,100883.16
2022-08-27T07:29:35.831Z,100878.06
2022-08-27T07:32:04.960Z,100871.28
2022-08-27T07:34:33.011Z,100875.28
2022-08-27T07:37:03.851Z,100872.13
2022-08-27T07:39:31.794Z,100874.88
2022-08-27T07:42:18.477Z,100870.53
2022-08-27T07:44:46.913Z,100877.41
2022-08-27T07:47:14.911Z,100873.25
2022-08-27T07:49:42.875Z,100873.19
2022-08-27T07:52:12.193Z,100866.38
2022-08-27T07:54:41.462Z,100870.91
2022-08-27T07:57:12.665Z,100858.53
2022-08-27T07:59:41.017Z,100866.38
2022-08-27T08:04:55.102Z,100867.53
2022-08-27T08:07:23.424Z,100854.97
2022-08-27T08:09:51.417Z,100864.16
2022-08-27T08:12:26.397Z,100863.97
2022-08-27T08:14:58.224Z,100860.28
2022-08-27T08:17:26.864Z,100853.97
2022-08-27T08:20:17.474Z,100862.50
2022-08-27T08:22:45.584Z,100861.44
2022-08-27T08:25:14.511Z,100861.44
2022-08-27T08:27:43.328Z,100866.19
2022-08-27T08:30:15.705Z,100860.25
2022-08-27T08:32:44.397Z,100852.38
2022-08-27T08:35:12.696Z,100854.03
2022-08-27T08:37:44.038Z,100855.50
2022-08-27T08:40:31.450Z,100847.28
2022-08-27T08:43:01.049Z,100838.09
2022-08-27T08:45:35.080Z,100830.97
2022-08-27T08:48:04.805Z,100844.31
2022-08-27T08:50:44.965Z,100837.88
2022-08-27T08:53:20.496Z,100838.19
2022-08-27T08:55:53.394Z,100836.47
2022-08-27T08:58:39.996Z,100833.50
2022-08-27T09:01:10.451Z,100838.56
2022-08-27T09:03:43.007Z,100831.53
2022-08-27T09:06:21.634Z,100831.03
2022-08-27T09:08:50.086Z,100827.59
2022-08-27T09:11:40.085Z,100814.75
2022-08-27T09:14:17.143Z,100822.97
2022-08-27T09:16:45.127Z,100824.44
2022-08-27T09:19:14.877Z,100822.59
2022-08-27T09:21:46.235Z,100823.59
2022-08-27T09:24:37.696Z,100825.16
2022-08-27T09:27:05.919Z,100822.06
2022-08-27T09:29:34.477Z,100820.84
2022-08-27T09:32:10.354Z,100823.72
2022-08-27T09:34:41.351Z,100818.12
2022-08-27T09:37:21.124Z,100816.28
2022-08-27T09:39:57.371Z,100826.69
2022-08-27T09:43:02.335Z,100828.62
2022-08-27T09:45:31.673Z,100817.78
2022-08-27T09:48:15.433Z,100825.34
2022-08-27T09:50:48.773Z,100825.69
2022-08-27T09:53:46.123Z,100826.09
2022-08-27T09:56:31.642Z,100826.00
2022-08-27T09:59:21.046Z,100823.41
2022-08-27T10:01:54.736Z,100818.19
2022-08-27T10:04:50.485Z,100823.22
2022-08-27T10:07:24.678Z,100816.84
2022-08-27T10:10:08.952Z,100831.91
2022-08-27T10:13:00.098Z,100823.66
2022-08-27T10:15:43.232Z,100826.56
2022-08-27T10:18:34.676Z,100830.13
2022-08-27T10:21:19.746Z,100830.47
2022-08-27T10:23:47.887Z,100833.31
2022-08-27T10:26:33.279Z,100828.53
2022-08-27T10:32:42.517Z,100824.72
2022-08-27T10:35:19.655Z,100820.50
2022-08-27T10:37:48.031Z,100831.25
2022-08-27T10:40:40.334Z,100828.06
2022-08-27T10:43:08.648Z,100824.72
2022-08-27T10:45:54.870Z,100820.25
2022-08-27T10:48:40.042Z,100818.31
2022-08-27T10:51:32.747Z,100817.97
2022-08-27T10:54:20.806Z,100816.47
2022-08-27T10:59:51.549Z,100806.59
2022-08-27T11:02:36.887Z,100812.53
2022-08-27T11:05:20.144Z,100799.19
2022-08-27T11:07:54.168Z,100807.41
2022-08-27T11:10:28.948Z,100805.19
2022-08-27T11:13:04.314Z,100803.63
2022-08-27T11:15:37.295Z,100798.09
2022-08-27T11:18:17.905Z,100797.94
2022-08-27T11:20:54.200Z,100801.69
2022-08-27T11:23:46.242Z,100793.34
2022-08-27T11:26:15.159Z,100791.59
2022-08-27T11:28:54.474Z,100794.38
2022-08-27T11:31:33.605Z,100792.19
2022-08-27T11:34:31.994Z,100782.72
2022-08-27T11:37:05.842Z,100783.94
2022-08-27T11:39:43.620Z,100786.13
2022-08-27T11:42:20.206Z,100785.84
2022-08-27T11:44:54.825Z,100784.94
2022-08-27T11:47:26.320Z,100784.50
2022-08-27T11:49:56.614Z,100784.62
2022-08-27T11:52:31.842Z,100781.16
2022-08-27T11:55:21.397Z,100780.69
2022-08-27T12:00:53.920Z,100781.22
2022-08-27T12:03:22.412Z,100774.97
2022-08-27T12:05:53.264Z,100777.84
2022-08-27T12:08:24.864Z,100773.38
2022-08-27T12:11:17.985Z,100776.28
2022-08-27T12:14:13.492Z,100777.00
2022-08-27T12:17:01.564Z,100759.16
2022-08-27T12:19:32.160Z,100773.94
2022-08-27T12:22:34.720Z,100761.56
2022-08-27T12:25:04.841Z,100766.97
2022-08-27T12:27:37.354Z,100766.97
2022-08-27T12:30:28.346Z,100757.50
2022-08-27T12:32:58.332Z,100762.09
2022-08-27T12:35:44.540Z,100758.53
2022-08-27T12:38:13.064Z,100747.81
2022-08-27T12:40:51.119Z,100747.69
2022-08-27T12:43:27.020Z,100752.91
2022-08-27T12:46:02.564Z,100742.03
2022-08-27T12:49:02.753Z,100751.69
2022-08-27T12:51:48.932Z,100754.97
2022-08-27T12:54:33.389Z,100741.72
2022-08-27T12:57:33.806Z,100745.66
2022-08-27T13:00:24.152Z,100738.94
2022-08-27T13:03:20.720Z,100735.37
2022-08-27T13:05:51.525Z,100736.69
2022-08-27T13:08:34.923Z,100729.91
2022-08-27T13:11:18.184Z,100744.12
2022-08-27T13:13:46.883Z,100740.81
2022-08-27T13:16:19.303Z,100741.81
2022-08-27T13:18:51.605Z,100734.19
2022-08-27T13:21:28.591Z,100734.50
2022-08-27T13:23:59.150Z,100737.88
2022-08-27T13:26:32.022Z,100735.06
2022-08-27T13:29:04.881Z,100735.28
2022-08-27T13:31:34.880Z,100737.44
2022-08-27T13:34:06.379Z,100735.44
2022-08-27T13:36:37.048Z,100731.56
2022-08-27T13:39:07.745Z,100733.34
2022-08-27T13:41:38.976Z,100736.84
2022-08-27T13:47:22.659Z,100729.88
2022-08-27T13:49:51.740Z,100723.31
2022-08-27T13:52:34.503Z,100735.22
2022-08-27T13:55:09.828Z,100729.94
2022-08-27T13:57:50.371Z,100737.56
2022-08-27T14:00:27.465Z,100725.75
2022-08-27T14:02:59.026Z,100725.84
2022-08-27T14:05:30.489Z,100723.44
2022-08-27T14:08:02.571Z,100726.75
2022-08-27T14:10:41.249Z,100725.25
2022-08-27T14:13:18.355Z,100726.06
2022-08-27T14:15:52.391Z,100715.22
2022-08-27T14:18:58.402Z,100715.28
2022-08-27T14:21:24.281Z,100721.94
2022-08-27T14:23:54.452Z,100718.09
2022-08-27T14:26:23.094Z,100717.59
2022-08-27T14:28:51.386Z,100719.00
2022-08-27T14:31:21.172Z,100719.16
2022-08-27T14:33:50.461Z,100721.97
2022-08-27T14:36:20.707Z,100724.53
2022-08-27T14:38:50.733Z,100725.97
2022-08-27T14:41:21.634Z,100721.31
2022-08-27T14:43:50.527Z,100713.72
2022-08-27T14:46:28.241Z,100719.81
2022-08-27T14:48:59.021Z,100719.69
2022-08-27T14:51:32.952Z,100720.22
2022-08-27T14:54:02.355Z,100716.75
2022-08-27T14:56:31.609Z,100720.00
2022-08-27T14:59:18.543Z,100718.81
2022-08-27T15:01:47.286Z,100721.22
2022-08-27T15:04:16.114Z,100713.66
2022-08-27T15:06:45.255Z,100715.53
2022-08-27T15:09:13.806Z,100713.78
2022-08-27T15:11:42.133Z,100707.87
2022-08-27T15:14:16.596Z,100713.19
2022-08-27T15:16:45.102Z,100709.97
2022-08-27T15:19:15.920Z,100715.03
2022-08-27T15:21:47.548Z,100720.84
2022-08-27T15:24:19.937Z,100715.94
2022-08-27T15:26:49.194Z,100725.63
2022-08-27T15:32:03.192Z,100724.59
2022-08-27T15:34:31.689Z,100718.81
2022-08-27T15:37:00.345Z,100717.09
2022-08-27T15:39:29.803Z,100722.69
2022-08-27T15:42:07.283Z,100722.88
2022-08-27T15:44:37.827Z,100718.06
2022-08-27T15:47:05.874Z,100716.66
2022-08-27T15:49:33.882Z,100713.38
2022-08-27T15:52:05.817Z,100714.25
2022-08-27T15:54:34.181Z,100720.00
2022-08-27T15:57:02.368Z,100718.37
2022-08-27T15:59:33.520Z,100709.28
2022-08-27T16:02:04.150Z,100712.63
2022-08-27T16:04:35.911Z,100705.31
2022-08-27T16:07:04.070Z,100715.50
2022-08-27T16:09:32.541Z,100706.47
2022-08-27T16:12:01.374Z,100708.09
2022-08-27T16:14:29.344Z,100705.66
2022-08-27T16:16:58.641Z,100716.38
2022-08-27T16:19:26.915Z,100714.00
2022-08-27T16:21:55.253Z,100721.53
2022-08-27T16:24:23.695Z,100717.06
2022-08-27T16:26:51.806Z,100712.91
2022-08-27T16:29:19.737Z,100713.12
2022-08-27T16:31:48.130Z,100714.56
2022-08-27T16:34:21.977Z,100708.31
2022-08-27T16:36:50.019Z,100718.69
2022-08-27T16:39:17.912Z,100724.34
2022-08-27T16:41:46.217Z,100717.16
2022-08-27T16:44:16.165Z,100719.09
2022-08-27T16:46:44.133Z,100714.75
2022-08-27T16:49:30.644Z,100726.31
2022-08-27T16:52:00.440Z,100729.19
2022-08-27T16:54:30.348Z,100719.06
2022-08-27T16:56:59.881Z,100724.78
2022-08-27T16:59:28.238Z,100720.06
2022-08-27T17:01:57.438Z,100715.94
2022-08-27T17:04:31.243Z,100719.22
2022-08-27T17:07:03.282Z,100727.78
2022-08-27T17:09:32.588Z,100717.97
2022-08-27T17:12:04.763Z,100719.81
2022-08-27T17:14:40.532Z,100722.22
2022-08-27T17:17:09.824Z,100718.69
2022-08-27T17:19:38.212Z,100722.28
2022-08-27T17:22:09.815Z,100720.78
2022-08-27T17:24:38.197Z,100725.37
2022-08-27T17:27:06.441Z,100717.78
2022-08-27T17:29:34.640Z,100721.94
2022-08-27T17:32:07.299Z,100716.53
2022-08-27T17:34:36.383Z,100730.62
2022-08-27T17:37:04.832Z,100733.00
2022-08-27T17:39:32.977Z,100728.44
2022-08-27T17:42:01.066Z,100738.19
2022-08-27T17:44:33.730Z,100733.03
2022-08-27T17:47:04.450Z,100738.47
2022-08-27T17:49:33.417Z,100732.97
2022-08-27T17:52:04.997Z,100743.03
2022-08-27T17:54:42.711Z,100747.22
2022-08-27T17:57:20.933Z,100747.41
2022-08-27T17:59:50.669Z,100743.88
2022-08-27T18:02:31.454Z,100752.28
2022-08-27T18:05:00.404Z,100753.25
2022-08-27T18:07:31.256Z,100754.03
2022-08-27T18:09:59.846Z,100757.66
2022-08-27T18:12:28.175Z,100753.03
2022-08-27T18:15:14.675Z,100753.78
2022-08-27T18:17:43.333Z,100752.50
2022-08-27T18:20:14.217Z,100759.22
2022-08-27T18:22:48.782Z,100756.47
2022-08-27T18:25:20.243Z,100748.38
2022-08-27T18:27:51.916Z,100754.97
2022-08-27T18:30:20.880Z,100757.44
2022-08-27T18:32:49.752Z,100749.59
2022-08-27T18:35:24.039Z,100757.19
2022-08-27T18:37:52.980Z,100751.78
2022-08-27T18:40:23.802Z,100756.03
2022-08-27T18:42:52.584Z,100759.50
2022-08-27T18:45:26.973Z,100762.72
2022-08-27T18:47:59.495Z,100750.56
2022-08-27T18:50:28.092Z,100752.22
2022-08-27T18:52:58.796Z,100756.41
2022-08-27T18:55:28.534Z,100755.81
2022-08-27T18:57:57.406Z,100759.81
2022-08-27T19:00:27.335Z,100756.56
2022-08-27T19:02:55.655Z,100754.09
2022-08-27T19:05:27.123Z,100759.22
2022-08-27T19:07:57.254Z,100754.53
2022-08-27T19:13:12.624Z,100763.00
2022-08-27T19:15:44.916Z,100750.25
2022-08-27T19:18:16.233Z,100748.41
2022-08-27T19:20:44.907Z,100748.78
2022-08-27T19:23:13.106Z,100749.34
2022-08-27T19:25:42.247Z,100743.69
2022-08-27T19:28:10.823Z,100742.25
2022-08-27T19:30:38.940Z,100736.62
2022-08-27T19:33:07.093Z,100751.50
2022-08-27T19:35:36.417Z,100746.81
2022-08-27T19:38:05.055Z,100741.81
2022-08-27T19:40:37.723Z,100746.66
2022-08-27T19:43:05.913Z,100745.81
2022-08-27T19:45:40.259Z,100736.81
2022-08-27T19:48:09.294Z,100737.28
2022-08-27T19:50:37.445Z,100742.41
2022-08-27T19:53:05.668Z,100738.19
2022-08-27T19:55:34.111Z,100743.47
2022-08-27T19:58:02.284Z,100739.78
2022-08-27T20:00:30.729Z,100737.41
2022-08-27T20:02:59.143Z,100731.69
2022-08-27T20:05:27.519Z,100742.41
2022-08-27T20:07:55.628Z,100732.94
2022-08-27T20:10:31.523Z,100741.78
2022-08-27T20:13:06.520Z,100744.28
2022-08-27T20:15:36.039Z,100743.00
2022-08-27T20:18:07.511Z,100739.25
2022-08-27T20:20:37.919Z,100742.25
2022-08-27T20:23:07.177Z,100739.63
2022-08-27T20:25:36.397Z,100740.41
2022-08-27T20:28:34.973Z,100734.63
2022-08-27T20:30:56.928Z,100744.12
2022-08-27T20:33:27.324Z,100741.09
2022-08-27T20:35:56.997Z,100736.38
2022-08-27T20:38:25.641Z,100738.50
2022-08-27T20:40:53.450Z,100733.59
2022-08-27T20:43:21.289Z,100736.78
2022-08-27T20:45:49.868Z,100725.94
2022-08-27T20:48:17.896Z,100734.66
2022-08-27T20:50:45.940Z,100739.44
2022-08-27T20:53:14.480Z,100726.09
2022-08-27T20:55:42.351Z,100737.41
2022-08-27T20:58:29.014Z,100735.72
2022-08-27T21:00:58.015Z,100724.09
2022-08-27T21:03:26.213Z,100731.69
2022-08-27T21:05:56.236Z,100727.28
2022-08-27T21:08:24.541Z,100730.97
2022-08-27T21:10:58.283Z,100729.03
2022-08-27T21:13:28.609Z,100722.88
2022-08-27T21:15:56.766Z,100721.59
2022-08-27T21:18:29.666Z,100727.44
2022-08-27T21:21:02.763Z,100718.94
2022-08-27T21:23:31.170Z,100713.72
2022-08-27T21:26:04.979Z,100713.75
2022-08-27T21:28:32.975Z,100722.56
2022-08-27T21:31:01.308Z,100717.25
2022-08-27T21:33:29.290Z,100720.59
2022-08-27T21:35:57.343Z,100716.38
2022-08-27T21:38:26.382Z,100720.41
2022-08-27T21:40:54.477Z,100717.59
2022-08-27T21:43:22.569Z,100713.44
2022-08-27T21:45:55.232Z,100717.25
2022-08-27T21:48:23.616Z,100711.56
2022-08-27T21:50:53.629Z,100710.75
2022-08-27T21:53:22.748Z,100708.37
2022-08-27T21:55:54.232Z,100716.22
2022-08-27T21:58:26.240Z,100707.53
2022-08-27T22:00:55.966Z,100709.78
2022-08-27T22:03:25.573Z,100700.66
2022-08-27T22:05:53.742Z,100708.81
2022-08-27T22:08:23.016Z,100701.66
2022-08-27T22:10:55.927Z,100695.41
2022-08-27T22:13:24.264Z,100702.63
2022-08-27T22:15:52.522Z,100686.31
2022-08-27T22:18:20.534Z,100689.34
2022-08-27T22:20:53.686Z,100699.38
2022-08-27T22:23:22.538Z,100688.16
2022-08-27T22:25:50.804Z,100675.44
2022-08-27T22:28:19.581Z,100677.22
2022-08-27T22:30:47.461Z,100679.53
2022-08-27T22:33:16.161Z,100674.31
2022-08-27T22:35:44.426Z,100692.38
2022-08-27T22:38:12.542Z,100680.69
2022-08-27T22:40:40.803Z,100682.31
2022-08-27T22:43:09.653Z,100691.34
2022-08-27T22:45:37.560Z,100683.19
2022-08-27T22:48:05.457Z,100684.97
2022-08-27T22:50:33.710Z,100684.94
2022-08-27T22:53:01.605Z,100688.00
2022-08-27T22:55:29.780Z,100693.00
2022-08-27T22:57:58.000Z,100679.22
2022-08-27T23:00:29.410Z,100680.69
2022-08-27T23:02:58.229Z,100677.94
2022-08-27T23:05:26.935Z,100687.13
2022-08-27T23:07:55.471Z,100686.16
2022-08-27T23:10:24.688Z,100688.56
2022-08-27T23:12:54.388Z,100682.31
2022-08-27T23:15:25.905Z,100667.37
2022-08-27T23:17:55.806Z,100674.81
2022-08-27T23:20:28.793Z,100677.84
2022-08-27T23:22:57.605Z,100696.31
2022-08-27T23:25:45.031Z,100686.16
2022-08-27T23:28:14.986Z,100695.78
2022-08-27T23:30:44.524Z,100690.75
2022-08-27T23:35:59.526Z,100680.97
2022-08-27T23:38:29.913Z,100681.13
2022-08-27T23:40:59.147Z,100673.53
2022-08-27T23:43:28.867Z,100644.13
2022-08-27T23:46:00.909Z,100669.00
2022-08-27T23:48:29.075Z,100664.69
2022-08-27T23:50:57.088Z,100668.94
2022-08-27T23:53:24.920Z,100657.53
2022-08-27T23:55:53.139Z,100664.41
2022-08-27T23:58:21.024Z,100658.19
